Time;durP1;ratioP1;P1;durP2;ratioP2;P2;SDS_P1;SDS_P2;PMS_P1;PMS_P2;Temp;Humidity;BMP_temperature;BMP_pressure;BME280_temperature;BME280_humidity;BME280_pressure;Samples;Min_cycle;Max_cycle;Signal;HPM_P1;HPM_P2
2022/02/21 00:02:01;;;;;;;13.30;2.22;;;6.40;90.90;;;;;;5056411;28;20055;-39
2022/02/21 00:04:26;;;;;;;10.18;2.13;;;6.40;90.70;;;;;;5056346;28;20432;-39
2022/02/21 00:06:52;;;;;;;7.05;1.73;;;6.40;90.20;;;;;;5056447;28;20028;-40
2022/02/21 00:09:17;;;;;;;11.73;2.10;;;6.40;90.20;;;;;;5056364;28;20028;-39
2022/02/21 00:11:43;;;;;;;11.27;1.60;;;6.50;90.30;;;;;;5056323;28;20117;-40
2022/02/21 00:14:09;;;;;;;8.35;1.73;;;6.50;90.50;;;;;;5056305;28;20028;-40
2022/02/21 00:16:34;;;;;;;8.77;1.70;;;6.50;90.50;;;;;;5056132;28;20099;-40
2022/02/21 00:19:00;;;;;;;9.05;1.60;;;6.60;90.60;;;;;;5056184;28;20024;-40
2022/02/21 00:21:26;;;;;;;8.35;1.70;;;6.60;90.60;;;;;;5056077;28;20021;-39
2022/02/21 00:23:52;;;;;;;9.13;1.80;;;6.60;90.60;;;;;;5056314;28;20021;-39
2022/02/21 00:26:18;;;;;;;6.13;1.90;;;6.60;90.70;;;;;;5056050;28;20021;-39
2022/02/21 00:28:45;;;;;;;10.45;2.25;;;6.60;90.50;;;;;;5055965;28;20358;-39
2022/02/21 00:31:11;;;;;;;7.38;1.80;;;6.50;90.60;;;;;;5055938;28;20031;-40
2022/02/21 00:33:37;;;;;;;8.82;2.00;;;6.50;90.60;;;;;;5055714;28;20029;-41
2022/02/21 00:36:03;;;;;;;12.60;2.17;;;6.50;90.50;;;;;;5055845;28;20032;-40
2022/02/21 00:38:28;;;;;;;12.50;2.35;;;6.40;90.30;;;;;;5055752;28;20021;-39
2022/02/21 00:40:54;;;;;;;12.63;2.47;;;6.20;90.30;;;;;;5055725;28;20025;-39
2022/02/21 00:43:20;;;;;;;11.50;2.10;;;6.20;90.30;;;;;;5054317;28;20017;-39
2022/02/21 00:45:45;;;;;;;10.82;2.42;;;6.10;90.20;;;;;;5054501;28;20175;-40
2022/02/21 00:48:11;;;;;;;13.20;2.53;;;6.00;90.40;;;;;;5054360;28;20062;-39
2022/02/21 00:50:36;;;;;;;12.38;2.72;;;6.10;90.40;;;;;;5052950;28;20025;-39
2022/02/21 00:53:03;;;;;;;13.90;2.50;;;6.00;90.60;;;;;;5054261;28;20427;-39
2022/02/21 00:55:30;;;;;;;12.25;2.97;;;6.00;90.60;;;;;;5054502;28;20362;-38
2022/02/21 00:57:56;;;;;;;13.35;2.80;;;6.10;90.60;;;;;;5054433;28;20021;-39
2022/02/21 01:00:22;;;;;;;13.00;2.75;;;6.10;89.90;;;;;;5053826;28;20025;-39
2022/02/21 01:02:48;;;;;;;10.75;2.30;;;6.10;88.00;;;;;;5054111;28;20066;-39
2022/02/21 01:05:14;;;;;;;12.82;2.40;;;6.00;89.10;;;;;;5054408;28;20492;-40
2022/02/21 01:07:39;;;;;;;17.92;3.17;;;6.10;89.00;;;;;;5052747;28;20017;-40
2022/02/21 01:10:05;;;;;;;17.45;3.30;;;6.00;88.30;;;;;;5054121;28;20075;-39
2022/02/21 01:12:32;;;;;;;15.40;2.85;;;6.00;88.30;;;;;;5053881;28;20029;-41
2022/02/21 01:14:57;;;;;;;8.90;2.15;;;6.00;88.70;;;;;;5054236;28;20112;-39
2022/02/21 01:17:23;;;;;;;11.35;2.30;;;5.80;86.70;;;;;;5053871;28;20442;-41
2022/02/21 01:19:50;;;;;;;14.82;2.53;;;5.50;87.90;;;;;;5053811;28;20017;-39
2022/02/21 01:22:16;;;;;;;7.90;2.00;;;5.30;89.10;;;;;;5053836;28;20546;-40
2022/02/21 01:24:42;;;;;;;12.40;2.17;;;5.30;88.60;;;;;;5054178;28;20111;-38
2022/02/21 01:27:08;;;;;;;14.93;2.95;;;5.10;89.00;;;;;;5053963;28;20032;-39
2022/02/21 01:29:34;;;;;;;11.57;1.80;;;5.00;89.00;;;;;;5053812;28;20496;-38
2022/02/21 01:31:59;;;;;;;12.25;2.63;;;4.90;89.70;;;;;;5053558;28;20025;-39
2022/02/21 01:34:26;;;;;;;11.10;2.60;;;4.90;90.10;;;;;;5053670;28;20485;-39
2022/02/21 01:36:52;;;;;;;14.63;3.03;;;4.90;90.10;;;;;;5053614;28;20021;-40
2022/02/21 01:39:19;;;;;;;13.20;2.22;;;4.90;90.30;;;;;;5053861;28;20558;-38
2022/02/21 01:41:45;;;;;;;10.65;2.33;;;4.90;90.40;;;;;;5052336;28;20115;-40
2022/02/21 01:44:12;;;;;;;12.05;2.42;;;5.00;90.50;;;;;;5015294;28;1099610;-40
2022/02/21 01:46:40;;;;;;;19.83;3.30;;;5.00;90.50;;;;;;5054473;28;20477;-40
2022/02/21 01:49:07;;;;;;;13.00;2.67;;;5.10;90.50;;;;;;5053575;28;20051;-38
2022/02/21 01:51:34;;;;;;;18.40;2.85;;;5.20;90.30;;;;;;5054299;28;20051;-39
2022/02/21 01:54:01;;;;;;;11.82;2.67;;;5.20;90.00;;;;;;5054590;28;20049;-41
2022/02/21 01:56:28;;;;;;;8.02;2.30;;;5.30;89.70;;;;;;5054451;28;20047;-41
2022/02/21 01:58:54;;;;;;;14.48;2.70;;;5.30;88.50;;;;;;5054253;28;20025;-39
2022/02/21 02:01:20;;;;;;;18.60;2.60;;;5.30;86.20;;;;;;5054248;28;20303;-39
2022/02/21 02:03:47;;;;;;;14.75;2.38;;;5.30;86.50;;;;;;5054173;28;20059;-39
2022/02/21 02:06:13;;;;;;;9.18;1.98;;;5.30;86.50;;;;;;5054419;28;20094;-40
2022/02/21 02:08:39;;;;;;;9.63;2.80;;;5.30;85.80;;;;;;5054089;28;20041;-40
2022/02/21 02:11:05;;;;;;;14.70;2.40;;;5.30;86.20;;;;;;5053992;28;20029;-40
2022/02/21 02:13:31;;;;;;;13.30;2.55;;;5.30;85.90;;;;;;5053095;28;20040;-39
2022/02/21 02:15:56;;;;;;;10.38;2.47;;;5.20;86.50;;;;;;5053959;28;20043;-40
2022/02/21 02:18:22;;;;;;;8.68;2.53;;;5.20;86.70;;;;;;5052695;28;20017;-40
2022/02/21 02:20:49;;;;;;;14.93;2.42;;;5.20;85.10;;;;;;5053796;28;20112;-39
2022/02/21 02:23:15;;;;;;;14.80;2.60;;;5.20;85.20;;;;;;5053812;28;20526;-39
2022/02/21 02:25:41;;;;;;;11.05;2.10;;;5.20;84.80;;;;;;5053957;28;20484;-39
2022/02/21 02:28:07;;;;;;;19.92;2.50;;;5.20;85.20;;;;;;5053639;28;20059;-40
2022/02/21 02:30:33;;;;;;;12.10;2.95;;;5.20;84.50;;;;;;5053568;28;20037;-39
2022/02/21 02:32:59;;;;;;;15.50;2.45;;;5.30;84.10;;;;;;5053434;28;20040;-39
2022/02/21 02:35:32;;;;;;;10.70;2.33;;;5.30;84.40;;;;;;5053558;28;20082;-39
2022/02/21 02:37:58;;;;;;;13.55;2.63;;;5.30;83.90;;;;;;5053780;28;20500;-39
2022/02/21 02:40:24;;;;;;;19.83;2.90;;;5.30;84.20;;;;;;5052524;28;20396;-39
2022/02/21 02:42:49;;;;;;;17.05;2.70;;;5.30;83.10;;;;;;5053475;28;20116;-39
2022/02/21 02:45:15;;;;;;;24.08;3.75;;;5.30;84.10;;;;;;5053436;28;20045;-39
2022/02/21 02:47:41;;;;;;;13.80;2.42;;;5.30;83.80;;;;;;5053294;28;20481;-40
2022/02/21 02:50:08;;;;;;;11.95;2.60;;;5.30;84.20;;;;;;5053285;28;20546;-39
2022/02/21 02:52:33;;;;;;;12.27;2.47;;;5.20;84.20;;;;;;5051848;28;20033;-40
2022/02/21 02:54:59;;;;;;;10.93;2.10;;;5.20;84.50;;;;;;5053499;28;20036;-39
2022/02/21 02:57:24;;;;;;;20.70;3.67;;;5.20;85.00;;;;;;5053147;28;20032;-38
2022/02/21 02:59:50;;;;;;;12.98;2.30;;;5.20;84.90;;;;;;5053185;28;20029;-39
2022/02/21 03:02:16;;;;;;;14.45;2.20;;;5.10;84.40;;;;;;5053107;28;20028;-38
2022/02/21 03:04:42;;;;;;;12.10;2.28;;;5.10;84.80;;;;;;5053084;28;20128;-39
2022/02/21 03:07:07;;;;;;;14.95;2.97;;;5.10;85.00;;;;;;5053021;28;20401;-39
2022/02/21 03:09:33;;;;;;;16.13;2.90;;;5.10;84.90;;;;;;5051700;28;20110;-39
2022/02/21 03:11:59;;;;;;;11.82;2.40;;;5.10;84.20;;;;;;5051587;28;20465;-40
2022/02/21 03:14:25;;;;;;;14.48;2.38;;;5.10;84.20;;;;;;5052943;28;20031;-39
2022/02/21 03:16:51;;;;;;;17.30;3.65;;;5.10;82.30;;;;;;5051592;28;20033;-39
2022/02/21 03:19:19;;;;;;;8.93;2.20;;;5.10;82.60;;;;;;5052953;28;20036;-38
2022/02/21 03:21:45;;;;;;;12.18;2.58;;;5.10;82.50;;;;;;5052799;28;20060;-40
2022/02/21 03:24:11;;;;;;;17.00;2.90;;;5.10;82.10;;;;;;5052684;28;20111;-39
2022/02/21 03:26:37;;;;;;;13.20;2.53;;;5.10;81.50;;;;;;5052696;28;20100;-39
2022/02/21 03:29:03;;;;;;;11.60;2.83;;;5.10;81.60;;;;;;5053039;28;20025;-39
2022/02/21 03:31:29;;;;;;;16.77;3.00;;;5.10;82.00;;;;;;5052975;28;20504;-41
2022/02/21 03:33:55;;;;;;;14.02;2.20;;;5.10;82.20;;;;;;5051353;28;20033;-39
2022/02/21 03:36:20;;;;;;;11.57;2.22;;;5.20;82.30;;;;;;5052669;28;20055;-39
2022/02/21 03:38:46;;;;;;;16.08;2.92;;;5.20;82.30;;;;;;5052756;28;20033;-39
2022/02/21 03:41:12;;;;;;;14.95;2.47;;;5.20;82.60;;;;;;5052709;28;20473;-40
2022/02/21 03:43:38;;;;;;;9.55;2.20;;;5.10;83.20;;;;;;5052711;28;20025;-40
2022/02/21 03:46:04;;;;;;;9.93;2.30;;;5.10;83.40;;;;;;5052448;28;20048;-41
2022/02/21 03:48:29;;;;;;;18.88;2.97;;;5.00;84.10;;;;;;5052842;28;20029;-40
2022/02/21 03:50:55;;;;;;;12.27;2.70;;;5.00;85.00;;;;;;5052567;28;20037;-40
2022/02/21 03:53:20;;;;;;;9.70;2.20;;;4.90;83.90;;;;;;5052310;28;20036;-40
2022/02/21 03:55:46;;;;;;;12.05;2.40;;;4.90;83.00;;;;;;5052490;28;20036;-40
2022/02/21 03:58:12;;;;;;;10.15;2.10;;;4.90;82.70;;;;;;5052718;28;20421;-42
2022/02/21 04:00:37;;;;;;;12.20;2.55;;;5.00;83.10;;;;;;5052401;28;20388;-42
2022/02/21 04:03:03;;;;;;;11.90;2.28;;;4.90;82.90;;;;;;5052415;28;20032;-40
2022/02/21 04:05:28;;;;;;;16.08;2.95;;;4.90;83.10;;;;;;5052339;28;20032;-42
2022/02/21 04:07:54;;;;;;;12.07;2.42;;;4.90;83.30;;;;;;5052559;28;20063;-40
2022/02/21 04:10:20;;;;;;;11.15;2.80;;;4.90;83.30;;;;;;5052266;28;20057;-39
2022/02/21 04:12:46;;;;;;;12.57;2.78;;;4.90;83.10;;;;;;5052483;28;20053;-40
2022/02/21 04:15:12;;;;;;;12.02;2.45;;;4.90;82.40;;;;;;5052283;28;20028;-40
2022/02/21 04:17:41;;;;;;;12.60;2.50;;;4.90;83.30;;;;;;5052275;28;20393;-41
2022/02/21 04:20:09;;;;;;;20.40;3.72;;;5.00;82.30;;;;;;5050899;28;20048;-39
2022/02/21 04:22:36;;;;;;;15.80;2.90;;;5.00;80.70;;;;;;5050501;28;20041;-40
2022/02/21 04:25:02;;;;;;;12.88;2.60;;;5.00;80.30;;;;;;5052446;28;20142;-40
2022/02/21 04:27:28;;;;;;;8.85;2.55;;;5.10;80.70;;;;;;5052257;28;20029;-41
2022/02/21 04:29:53;;;;;;;14.13;2.58;;;5.10;79.30;;;;;;5052091;28;20056;-39
2022/02/21 04:32:19;;;;;;;14.38;2.53;;;5.10;79.80;;;;;;5051818;28;20033;-42
2022/02/21 04:34:44;;;;;;;19.45;3.35;;;5.20;79.10;;;;;;5052027;28;20071;-40
2022/02/21 04:37:10;;;;;;;12.90;2.67;;;5.20;79.30;;;;;;5054956;28;20346;-40
2022/02/21 04:39:35;;;;;;;14.57;3.15;;;5.20;79.60;;;;;;5055751;28;20096;-41
2022/02/21 04:42:01;;;;;;;10.30;2.63;;;5.20;78.30;;;;;;5055674;28;20060;-40
2022/02/21 04:44:27;;;;;;;11.55;2.60;;;5.30;78.90;;;;;;5055413;28;20070;-40
2022/02/21 04:46:55;;;;;;;11.80;2.90;;;5.30;78.10;;;;;;5055807;28;20524;-40
2022/02/21 04:49:21;;;;;;;19.33;3.45;;;5.20;77.70;;;;;;5055748;28;20032;-39
2022/02/21 04:51:47;;;;;;;16.23;2.90;;;5.20;77.20;;;;;;5055455;28;20029;-40
2022/02/21 04:54:12;;;;;;;16.50;3.05;;;5.20;75.90;;;;;;5055473;28;20037;-42
2022/02/21 04:56:38;;;;;;;12.75;2.90;;;5.20;75.90;;;;;;5055385;28;20025;-41
2022/02/21 04:59:04;;;;;;;12.07;2.67;;;5.20;74.50;;;;;;5055376;28;20033;-41
2022/02/21 05:01:29;;;;;;;10.95;2.75;;;5.20;75.90;;;;;;5055463;28;20021;-40
2022/02/21 05:03:56;;;;;;;11.43;2.10;;;5.20;75.50;;;;;;5055188;28;20024;-40
2022/02/21 05:06:22;;;;;;;13.45;2.67;;;5.20;75.70;;;;;;5055011;28;20374;-41
2022/02/21 05:08:47;;;;;;;10.75;2.28;;;5.20;76.10;;;;;;5055216;28;20036;-41
2022/02/21 05:11:13;;;;;;;9.57;1.90;;;5.20;74.80;;;;;;5055235;28;20456;-42
2022/02/21 05:13:39;;;;;;;13.30;2.50;;;5.20;75.90;;;;;;5055110;28;20110;-41
2022/02/21 05:16:05;;;;;;;9.35;1.98;;;5.20;76.40;;;;;;5055314;28;20476;-41
2022/02/21 05:18:31;;;;;;;12.10;1.80;;;5.20;77.00;;;;;;5055096;28;20473;-42
2022/02/21 05:20:57;;;;;;;14.00;2.30;;;5.20;77.40;;;;;;5055055;28;20021;-41
2022/02/21 05:23:22;;;;;;;10.52;2.20;;;5.20;76.50;;;;;;5054863;28;20037;-40
2022/02/21 05:25:48;;;;;;;7.72;1.73;;;5.20;77.30;;;;;;5054875;28;20056;-41
2022/02/21 05:28:14;;;;;;;11.75;2.35;;;5.30;77.60;;;;;;5054954;28;20393;-41
2022/02/21 05:30:39;;;;;;;8.45;1.85;;;5.30;77.60;;;;;;5053458;28;20067;-41
2022/02/21 05:33:05;;;;;;;12.07;2.72;;;5.30;77.40;;;;;;5054602;28;20370;-41
2022/02/21 05:35:31;;;;;;;6.35;1.98;;;5.30;77.60;;;;;;5054701;28;20025;-39
2022/02/21 05:37:56;;;;;;;11.32;2.65;;;5.40;77.70;;;;;;5054656;28;20060;-41
2022/02/21 05:40:22;;;;;;;10.05;2.65;;;5.40;77.80;;;;;;5053161;28;20432;-40
2022/02/21 05:42:47;;;;;;;7.38;2.00;;;5.40;76.80;;;;;;5054511;28;20029;-40
2022/02/21 05:45:13;;;;;;;7.10;1.98;;;5.40;77.50;;;;;;5054479;28;20064;-40
2022/02/21 05:47:39;;;;;;;9.20;2.47;;;5.40;77.80;;;;;;5053524;28;20380;-40
2022/02/21 05:50:05;;;;;;;9.75;2.17;;;5.30;77.40;;;;;;5054470;28;20381;-40
2022/02/21 05:52:30;;;;;;;14.77;2.95;;;5.30;77.60;;;;;;5054401;28;20465;-40
2022/02/21 05:54:56;;;;;;;13.02;2.35;;;5.20;77.10;;;;;;5054359;28;20103;-40
2022/02/21 05:57:21;;;;;;;12.48;2.30;;;5.20;76.90;;;;;;5054182;28;20024;-42
2022/02/21 05:59:47;;;;;;;12.70;3.03;;;5.20;77.70;;;;;;5054213;28;20071;-41
2022/02/21 06:02:12;;;;;;;16.60;2.53;;;5.10;77.60;;;;;;5054195;28;20037;-42
2022/02/21 06:04:38;;;;;;;11.18;2.35;;;5.10;77.60;;;;;;5054191;28;20039;-42
2022/02/21 06:07:04;;;;;;;11.55;2.65;;;5.10;78.00;;;;;;5054318;28;20099;-43
2022/02/21 06:09:29;;;;;;;14.38;2.70;;;5.10;78.10;;;;;;5054358;28;20025;-42
2022/02/21 06:11:55;;;;;;;15.27;3.05;;;5.00;78.40;;;;;;5052692;28;20025;-42
2022/02/21 06:14:21;;;;;;;12.30;2.58;;;5.00;77.70;;;;;;5054011;28;20021;-41
2022/02/21 06:16:46;;;;;;;15.63;2.50;;;5.00;78.20;;;;;;5054222;28;20101;-41
2022/02/21 06:19:12;;;;;;;17.30;3.22;;;5.00;78.50;;;;;;5053900;28;20025;-41
2022/02/21 06:21:37;;;;;;;14.52;2.85;;;5.00;78.70;;;;;;5053833;28;20048;-41
2022/02/21 06:24:03;;;;;;;10.70;2.30;;;5.00;79.00;;;;;;5053681;28;20029;-41
2022/02/21 06:26:29;;;;;;;14.25;2.60;;;5.00;79.00;;;;;;5053748;28;20036;-41
2022/02/21 06:28:54;;;;;;;10.63;2.30;;;4.90;79.10;;;;;;5053689;28;20542;-40
2022/02/21 06:31:21;;;;;;;13.60;2.58;;;4.90;79.40;;;;;;5053598;28;20114;-41
2022/02/21 06:33:47;;;;;;;15.15;2.58;;;4.90;79.70;;;;;;5053781;28;20025;-41
2022/02/21 06:36:12;;;;;;;16.80;4.03;;;4.90;80.00;;;;;;5053559;28;20032;-41
2022/02/21 06:38:40;;;;;;;14.88;2.60;;;4.90;79.90;;;;;;5052208;28;20056;-42
2022/02/21 06:41:05;;;;;;;13.77;2.60;;;4.90;79.60;;;;;;5053513;28;20016;-41
2022/02/21 06:43:31;;;;;;;15.98;2.47;;;5.00;79.70;;;;;;5053411;28;20420;-41
2022/02/21 06:45:56;;;;;;;10.07;2.15;;;5.00;80.00;;;;;;5053164;28;20045;-43
2022/02/21 06:48:23;;;;;;;13.77;2.85;;;5.00;80.20;;;;;;5053326;28;20086;-41
2022/02/21 06:50:49;;;;;;;18.42;3.10;;;5.00;79.90;;;;;;5053178;28;20067;-42
2022/02/21 06:53:14;;;;;;;14.27;3.00;;;4.90;79.80;;;;;;5053046;28;20061;-41
2022/02/21 06:55:40;;;;;;;21.90;2.92;;;5.00;79.30;;;;;;5053120;28;20499;-40
2022/02/21 06:58:06;;;;;;;12.18;2.45;;;5.00;79.50;;;;;;5052927;28;20070;-41
2022/02/21 07:00:31;;;;;;;18.48;2.88;;;5.00;79.20;;;;;;5053231;28;20477;-41
2022/02/21 07:02:57;;;;;;;16.17;2.58;;;5.10;79.50;;;;;;5052995;28;20021;-41
2022/02/21 07:05:22;;;;;;;12.82;3.30;;;5.10;78.70;;;;;;5053015;28;20040;-41
2022/02/21 07:07:48;;;;;;;17.05;2.90;;;5.20;78.80;;;;;;5053042;28;20029;-43
2022/02/21 07:10:13;;;;;;;12.63;2.63;;;5.20;78.80;;;;;;5052921;28;20025;-42
2022/02/21 07:12:39;;;;;;;15.35;2.63;;;5.20;78.90;;;;;;5052780;28;20474;-41
2022/02/21 07:15:05;;;;;;;11.30;2.47;;;5.30;78.60;;;;;;5052864;28;20021;-41
2022/02/21 07:17:41;;;;;;;11.48;2.80;;;5.30;78.70;;;;;;5053162;28;20424;-42
2022/02/21 07:20:15;;;;;;;17.75;2.60;;;5.40;78.50;;;;;;5052821;28;20127;-41
2022/02/21 07:22:42;;;;;;;21.52;3.10;;;5.40;78.60;;;;;;5053078;28;20029;-42
2022/02/21 07:25:09;;;;;;;19.15;3.67;;;5.40;79.10;;;;;;5051578;28;20477;-42
2022/02/21 07:27:49;;;;;;;14.63;2.88;;;5.40;78.10;;;;;;5052854;28;20040;-43
2022/02/21 07:30:17;;;;;;;19.42;3.35;;;5.50;78.00;;;;;;5053001;28;20468;-42
2022/02/21 07:32:44;;;;;;;17.30;3.15;;;5.50;77.90;;;;;;5052546;28;20051;-43
2022/02/21 07:35:10;;;;;;;12.35;2.60;;;5.50;77.80;;;;;;5051416;28;20025;-42
2022/02/21 07:37:36;;;;;;;18.67;3.70;;;5.50;78.30;;;;;;5052699;28;20036;-43
2022/02/21 07:40:03;;;;;;;13.32;2.60;;;5.60;78.30;;;;;;5052620;28;20025;-42
2022/02/21 07:42:29;;;;;;;15.75;3.17;;;5.60;77.80;;;;;;5052510;28;20040;-41
2022/02/21 07:44:54;;;;;;;12.20;2.72;;;5.60;77.70;;;;;;5052407;28;20041;-42
2022/02/21 07:47:20;;;;;;;17.40;2.90;;;5.60;77.70;;;;;;5052592;28;20104;-41
2022/02/21 07:49:46;;;;;;;16.35;2.75;;;5.60;77.40;;;;;;5052471;28;20025;-36
2022/02/21 07:52:12;;;;;;;14.85;2.30;;;5.70;77.40;;;;;;5052473;28;20040;-39
2022/02/21 07:54:37;;;;;;;13.70;3.08;;;5.70;77.40;;;;;;5052399;28;20033;-36
2022/02/21 07:57:06;;;;;;;16.70;2.95;;;5.70;77.60;;;;;;5052512;28;20107;-34
2022/02/21 07:59:32;;;;;;;14.95;3.00;;;5.70;77.70;;;;;;5052711;28;20393;-35
2022/02/21 08:01:58;;;;;;;13.32;3.08;;;5.80;78.20;;;;;;5052402;28;20044;-35
2022/02/21 08:04:24;;;;;;;16.85;2.50;;;5.80;78.10;;;;;;5052298;28;20039;-35
2022/02/21 08:06:50;;;;;;;11.88;2.60;;;5.80;78.60;;;;;;5052514;28;20025;-35
2022/02/21 08:09:16;;;;;;;12.52;2.13;;;5.90;78.90;;;;;;5052309;28;20112;-37
2022/02/21 08:11:41;;;;;;;14.25;3.25;;;6.00;79.00;;;;;;5054458;28;20028;-36
2022/02/21 08:14:10;;;;;;;13.73;3.00;;;6.00;77.60;;;;;;5056272;28;20029;-36
2022/02/21 08:16:35;;;;;;;18.13;3.10;;;6.00;77.40;;;;;;5056408;28;20496;-36
2022/02/21 08:19:01;;;;;;;13.57;2.72;;;6.00;77.40;;;;;;5056205;28;20025;-39
2022/02/21 08:21:26;;;;;;;10.25;2.47;;;6.00;77.20;;;;;;5056236;28;20021;-36
2022/02/21 08:23:52;;;;;;;13.23;2.25;;;6.00;77.80;;;;;;5056012;28;20512;-38
2022/02/21 08:26:18;;;;;;;15.50;2.78;;;6.00;77.60;;;;;;5056082;28;20040;-37
2022/02/21 08:28:44;;;;;;;17.55;2.92;;;6.00;77.30;;;;;;5056048;28;20115;-37
2022/02/21 08:31:09;;;;;;;12.85;2.10;;;6.00;77.80;;;;;;5055871;28;20546;-36
2022/02/21 08:33:35;;;;;;;14.55;3.17;;;6.00;77.30;;;;;;5055718;28;20430;-36
2022/02/21 08:36:01;;;;;;;14.68;2.65;;;6.00;77.50;;;;;;5055840;28;20029;-38
2022/02/21 08:38:26;;;;;;;12.65;2.40;;;6.00;77.90;;;;;;5054469;28;20017;-35
2022/02/21 08:40:52;;;;;;;12.02;2.53;;;6.00;77.80;;;;;;5055811;28;20055;-39
2022/02/21 08:43:19;;;;;;;9.02;2.20;;;6.00;78.20;;;;;;5055758;28;20477;-35
2022/02/21 08:45:44;;;;;;;12.23;2.90;;;6.00;78.50;;;;;;5055423;28;20401;-38
2022/02/21 08:48:10;;;;;;;13.40;2.70;;;6.00;78.40;;;;;;5055753;28;20033;-37
2022/02/21 08:50:36;;;;;;;7.45;2.10;;;6.00;78.60;;;;;;5055528;28;20052;-38
2022/02/21 08:53:01;;;;;;;17.08;2.60;;;5.90;79.00;;;;;;5055823;28;20489;-36
2022/02/21 08:55:27;;;;;;;11.07;2.15;;;5.90;79.00;;;;;;5054208;28;20052;-35
2022/02/21 08:57:53;;;;;;;10.98;2.50;;;5.90;79.10;;;;;;5055502;28;20104;-36
2022/02/21 09:00:18;;;;;;;13.20;2.60;;;5.80;79.40;;;;;;5055657;28;20408;-39
2022/02/21 09:02:44;;;;;;;10.13;2.42;;;5.80;80.10;;;;;;5055204;28;20025;-38
2022/02/21 09:05:11;;;;;;;10.82;2.28;;;5.70;81.60;;;;;;5055624;28;20064;-38
2022/02/21 09:07:37;;;;;;;9.40;2.10;;;5.60;82.00;;;;;;5053898;28;20029;-37
2022/02/21 09:10:04;;;;;;;14.43;2.90;;;5.50;82.50;;;;;;5055510;28;20025;-35
2022/02/21 09:12:30;;;;;;;12.02;2.42;;;5.40;83.30;;;;;;5055088;28;20032;-33
2022/02/21 09:15:00;;;;;;;14.60;3.03;;;5.30;83.80;;;;;;5054308;28;20538;-34
2022/02/21 09:17:25;;;;;;;13.65;2.13;;;5.20;84.40;;;;;;5055339;28;20040;-35
2022/02/21 09:19:51;;;;;;;8.98;2.30;;;5.20;84.70;;;;;;5055000;28;20021;-35
2022/02/21 09:22:17;;;;;;;9.20;2.30;;;5.10;85.50;;;;;;5054902;28;20079;-34
2022/02/21 09:24:43;;;;;;;12.95;2.35;;;5.10;85.20;;;;;;5054895;28;20461;-33
2022/02/21 09:27:09;;;;;;;15.25;2.55;;;5.10;85.70;;;;;;5055049;28;20033;-32
2022/02/21 09:29:35;;;;;;;12.68;2.55;;;5.00;86.50;;;;;;5054905;28;20032;-34
2022/02/21 09:32:00;;;;;;;12.60;2.50;;;5.00;86.30;;;;;;5055097;28;20033;-33
2022/02/21 09:34:26;;;;;;;12.63;3.00;;;4.90;86.60;;;;;;5053523;28;20583;-35
2022/02/21 09:36:52;;;;;;;9.73;2.53;;;4.90;86.70;;;;;;5054752;28;20048;-33
2022/02/21 09:39:17;;;;;;;12.13;2.40;;;4.90;87.10;;;;;;5054755;28;20437;-36
2022/02/21 09:41:43;;;;;;;15.80;2.50;;;4.80;87.40;;;;;;5054701;28;20025;-35
2022/02/21 09:44:10;;;;;;;8.20;2.60;;;4.70;87.50;;;;;;5054548;28;20161;-34
2022/02/21 09:46:36;;;;;;;10.50;3.13;;;4.70;88.00;;;;;;5054592;28;20028;-34
2022/02/21 09:49:01;;;;;;;11.95;2.75;;;4.60;88.50;;;;;;5054736;28;20025;-33
2022/02/21 09:51:28;;;;;;;8.15;2.10;;;4.60;88.80;;;;;;5054437;28;20029;-33
2022/02/21 09:53:53;;;;;;;9.05;2.38;;;4.60;89.00;;;;;;5054370;28;20095;-35
2022/02/21 09:56:20;;;;;;;11.95;2.45;;;4.60;89.30;;;;;;5054516;28;20029;-39
2022/02/21 09:58:45;;;;;;;13.48;2.45;;;4.60;89.70;;;;;;5054647;28;20067;-35
2022/02/21 10:01:11;;;;;;;9.82;2.53;;;4.50;89.80;;;;;;5054316;28;20052;-36
2022/02/21 10:03:37;;;;;;;10.23;2.45;;;4.50;90.00;;;;;;5054500;28;20075;-33
2022/02/21 10:06:22;;;;;;;9.27;2.00;;;4.50;90.20;;;;;;5054307;28;20033;-35
2022/02/21 10:08:50;;;;;;;10.55;2.60;;;4.60;90.20;;;;;;5054429;28;20498;-36
2022/02/21 10:11:30;;;;;;;11.25;2.40;;;4.60;90.30;;;;;;5054246;28;20074;-37
2022/02/21 10:14:02;;;;;;;10.70;2.22;;;4.60;90.40;;;;;;5054281;28;20076;-35
2022/02/21 10:16:38;;;;;;;13.88;3.33;;;4.60;90.30;;;;;;5053958;28;20051;-34
2022/02/21 10:19:20;;;;;;;17.00;3.08;;;4.60;90.30;;;;;;5054294;28;20024;-35
2022/02/21 10:21:50;;;;;;;8.80;2.40;;;4.60;90.50;;;;;;5053885;28;20104;-34
2022/02/21 10:24:16;;;;;;;14.07;2.75;;;4.60;90.40;;;;;;5053904;28;20096;-35
2022/02/21 10:26:42;;;;;;;12.73;3.40;;;4.70;90.60;;;;;;5052561;28;20412;-34
2022/02/21 10:29:09;;;;;;;17.00;3.38;;;4.70;90.60;;;;;;5053948;28;20045;-34
2022/02/21 10:31:35;;;;;;;11.80;2.90;;;4.70;90.80;;;;;;5053885;28;20381;-34
2022/02/21 10:34:02;;;;;;;15.50;3.13;;;4.70;90.70;;;;;;5052993;28;20028;-36
2022/02/21 10:36:34;;;;;;;12.35;3.35;;;4.70;90.70;;;;;;5053585;28;20021;-34
2022/02/21 10:39:02;;;;;;;15.88;3.85;;;4.70;90.90;;;;;;5053516;28;20017;-37
2022/02/21 10:42:02;;;;;;;9.05;2.42;;;4.60;90.90;;;;;;5053806;28;20029;-35
2022/02/21 10:44:40;;;;;;;12.07;3.17;;;4.60;91.10;;;;;;5041549;28;20523;-36
2022/02/21 10:47:17;;;;;;;10.13;2.50;;;4.60;91.10;;;;;;5053455;28;20017;-37
2022/02/21 10:50:00;;;;;;;8.13;2.30;;;4.60;91.20;;;;;;5053670;28;20384;-37
2022/02/21 10:52:38;;;;;;;7.35;2.20;;;4.60;91.20;;;;;;5053310;28;20075;-35
2022/02/21 10:55:05;;;;;;;10.18;2.13;;;4.60;91.30;;;;;;5053615;28;20473;-35
2022/02/21 10:57:43;;;;;;;9.98;2.22;;;4.60;91.30;;;;;;5053144;28;20112;-37
2022/02/21 11:00:10;;;;;;;12.00;3.35;;;4.60;91.30;;;;;;5053251;28;20027;-35
2022/02/21 11:02:39;;;;;;;14.10;2.92;;;4.50;91.40;;;;;;5053507;28;20431;-35
2022/02/21 11:05:07;;;;;;;10.90;3.05;;;4.50;91.40;;;;;;5053133;28;20032;-38
2022/02/21 11:07:33;;;;;;;13.48;2.50;;;4.60;91.60;;;;;;5053300;28;20079;-38
2022/02/21 11:10:01;;;;;;;13.40;2.30;;;4.60;91.60;;;;;;5053263;28;20451;-37
2022/02/21 11:12:32;;;;;;;12.07;2.72;;;4.60;91.70;;;;;;5053170;28;20461;-36
2022/02/21 11:15:00;;;;;;;10.68;2.25;;;4.60;91.80;;;;;;5053044;28;20104;-34
2022/02/21 11:17:27;;;;;;;9.63;2.03;;;4.60;91.80;;;;;;5053084;28;20033;-36
2022/02/21 11:19:53;;;;;;;9.98;2.00;;;4.70;91.80;;;;;;5052958;28;20064;-36
2022/02/21 11:22:18;;;;;;;11.00;2.67;;;4.70;91.80;;;;;;5052921;28;20055;-38
2022/02/21 11:24:50;;;;;;;5.60;1.83;;;4.80;91.80;;;;;;5052885;28;20032;-38
2022/02/21 11:27:48;;;;;;;10.18;2.42;;;4.80;91.90;;;;;;5052874;28;20033;-35
2022/02/21 11:30:16;;;;;;;11.02;2.25;;;4.80;91.80;;;;;;5052886;28;20025;-36
2022/02/21 11:33:05;;;;;;;12.40;2.72;;;4.80;92.00;;;;;;5052902;28;20025;-40
2022/02/21 11:35:32;;;;;;;14.07;2.85;;;4.90;91.90;;;;;;5053008;28;20114;-37
2022/02/21 11:38:17;;;;;;;15.25;2.90;;;4.90;92.00;;;;;;5052855;28;20025;-36
2022/02/21 11:41:12;;;;;;;17.15;2.90;;;4.90;92.10;;;;;;5052932;28;20025;-37
2022/02/21 11:43:49;;;;;;;17.92;3.60;;;4.90;92.10;;;;;;5052932;28;20025;-37
2022/02/21 11:46:25;;;;;;;12.35;2.80;;;5.00;92.20;;;;;;5056080;28;20432;-38
2022/02/21 11:49:02;;;;;;;16.25;3.55;;;5.00;92.20;;;;;;5055503;28;20033;-37
2022/02/21 11:51:41;;;;;;;23.42;3.78;;;5.10;92.40;;;;;;5057065;28;20029;-38
2022/02/21 11:54:09;;;;;;;24.13;4.45;;;5.10;92.40;;;;;;5056697;28;20033;-37
2022/02/21 11:56:50;;;;;;;23.10;4.68;;;5.20;92.70;;;;;;5056588;28;20499;-36
2022/02/21 11:59:25;;;;;;;26.83;4.55;;;5.20;92.70;;;;;;5056431;28;20100;-40
2022/02/21 12:02:02;;;;;;;27.73;4.47;;;5.30;92.90;;;;;;5056845;28;20485;-38
2022/02/21 12:04:29;;;;;;;27.02;4.32;;;5.40;93.10;;;;;;5056420;28;20105;-37
2022/02/21 12:06:57;;;;;;;28.40;4.35;;;5.50;93.20;;;;;;5056438;28;20017;-35
2022/02/21 12:09:24;;;;;;;23.63;4.40;;;5.60;93.20;;;;;;5056307;28;20032;-40
2022/02/21 12:11:49;;;;;;;24.35;4.28;;;5.70;93.20;;;;;;5056628;28;20021;-35
2022/02/21 12:14:19;;;;;;;24.55;4.60;;;5.80;93.20;;;;;;5056325;28;20100;-37
2022/02/21 12:16:57;;;;;;;23.75;4.40;;;5.80;93.10;;;;;;5056209;28;20040;-38
2022/02/21 12:19:27;;;;;;;22.67;4.93;;;5.90;93.00;;;;;;5056332;28;20028;-39
2022/02/21 12:22:09;;;;;;;29.45;4.90;;;6.00;93.00;;;;;;5056220;28;20029;-37
2022/02/21 12:24:55;;;;;;;24.30;5.50;;;6.10;93.20;;;;;;5056178;28;20032;-37
2022/02/21 12:27:21;;;;;;;26.42;5.32;;;6.10;93.20;;;;;;5055899;28;20100;-38
2022/02/21 12:29:46;;;;;;;24.65;4.88;;;6.20;93.20;;;;;;5056646;28;20066;-38
2022/02/21 12:32:23;;;;;;;28.45;4.65;;;6.20;93.50;;;;;;5055805;28;20086;-37
2022/02/21 12:34:49;;;;;;;23.65;4.57;;;6.30;93.20;;;;;;5054688;28;20025;-38
2022/02/21 12:37:15;;;;;;;23.17;3.83;;;6.30;93.10;;;;;;5056147;28;20469;-35
2022/02/21 12:39:43;;;;;;;26.13;4.70;;;6.40;93.10;;;;;;5054560;28;20021;-35
2022/02/21 12:42:09;;;;;;;18.42;4.15;;;6.40;93.10;;;;;;5056005;28;20052;-37
2022/02/21 12:44:35;;;;;;;22.83;4.05;;;6.50;93.10;;;;;;5054278;28;20051;-35
2022/02/21 12:47:04;;;;;;;21.10;4.38;;;6.50;93.10;;;;;;5055646;28;20100;-35
2022/02/21 12:49:35;;;;;;;32.10;5.68;;;6.60;93.20;;;;;;5055840;28;20025;-38